Niagara, Wisconsin
Current Conditions -  °F | °C
As of 3:54 AM on Thursday 23 Oct 2014 (Local Time) from KIMT Reporting Station
Haze Haze  
Wind Chill: 34°   Ceiling: 300
Heat Index: 39°   Visibility: 4mi
Dew Point: 37°   Wind: 7mph
Humidity: 93%   Direction: 150°SSE
Pressure: 30.16"   Gusts: NA
Location:  45.77°N, 87.99°W
Report Text: KIMT 230854Z AUTO 15006KT 4SM BR OVC003 04/03 A3016 RMK AO2 SLP223 T00390028 55007
Loading
Personal Weather Stations






























Interactive Weather Map
Tropical Storm Tracking
New forecast layout! Learn more

10-Day Weather Forecast

Advertisements
Track Severe Weather on mobile